createdAt,value
2018-02-22T00:01:23.882Z,20.43
2018-02-22T00:03:50.286Z,19.07
2018-02-22T00:06:16.677Z,19.07
2018-02-22T00:08:43.105Z,19.17
2018-02-22T00:11:09.489Z,19.97
2018-02-22T00:13:35.854Z,19.53
2018-02-22T00:16:02.233Z,19.73
2018-02-22T00:18:28.632Z,20.80
2018-02-22T00:20:54.997Z,19.23
2018-02-22T00:23:21.453Z,21.10
2018-02-22T00:25:47.891Z,19.63
2018-02-22T00:28:14.325Z,18.17
2018-02-22T00:30:40.722Z,18.80
2018-02-22T00:33:07.173Z,17.33
2018-02-22T00:35:33.643Z,17.37
2018-02-22T00:38:00.037Z,18.70
2018-02-22T00:40:26.486Z,18.20
2018-02-22T00:42:52.944Z,18.53
2018-02-22T00:45:19.324Z,18.97
2018-02-22T00:47:45.740Z,19.53
2018-02-22T00:50:12.157Z,18.43
2018-02-22T00:52:38.541Z,18.17
2018-02-22T00:55:04.949Z,19.67
2018-02-22T00:57:31.362Z,19.60
2018-02-22T00:59:57.726Z,20.13
2018-02-22T01:02:24.090Z,19.07
2018-02-22T01:04:50.577Z,19.77
2018-02-22T01:07:17.050Z,20.20
2018-02-22T01:09:43.453Z,18.90
2018-02-22T01:12:09.942Z,19.23
2018-02-22T01:14:36.309Z,19.03
2018-02-22T01:17:02.720Z,19.87
2018-02-22T01:19:29.139Z,19.17
2018-02-22T01:21:55.532Z,18.27
2018-02-22T01:24:21.927Z,20.47
2018-02-22T01:26:48.446Z,19.03
2018-02-22T01:29:14.829Z,17.13
2018-02-22T01:31:41.198Z,16.73
2018-02-22T01:34:07.638Z,16.60
2018-02-22T01:36:34.088Z,16.30
2018-02-22T01:39:00.569Z,15.27
2018-02-22T01:41:26.941Z,14.40
2018-02-22T01:43:53.304Z,14.33
2018-02-22T01:46:19.748Z,14.80
2018-02-22T01:48:46.189Z,15.67
2018-02-22T01:51:12.585Z,14.67
2018-02-22T01:53:38.950Z,12.73
2018-02-22T01:56:05.485Z,13.47
2018-02-22T01:58:31.918Z,13.37
2018-02-22T02:00:58.297Z,13.53
2018-02-22T02:03:24.806Z,12.97
2018-02-22T02:05:51.243Z,15.17
2018-02-22T02:08:17.633Z,12.67
2018-02-22T02:10:44.115Z,12.67
2018-02-22T02:13:10.518Z,14.47
2018-02-22T02:15:36.937Z,14.70
2018-02-22T02:18:03.389Z,15.27
2018-02-22T02:20:29.778Z,16.47
2018-02-22T02:22:56.315Z,15.87
2018-02-22T02:25:22.781Z,15.37
2018-02-22T02:27:55.146Z,15.30
2018-02-22T02:30:21.565Z,16.73
2018-02-22T02:32:48.068Z,16.03
2018-02-22T02:35:14.458Z,16.20
2018-02-22T02:37:40.858Z,15.10
2018-02-22T02:40:07.360Z,15.50
2018-02-22T02:42:33.753Z,17.20
2018-02-22T02:45:00.154Z,16.30
2018-02-22T02:47:26.609Z,16.83
2018-02-22T02:49:53.035Z,15.60
2018-02-22T02:52:19.601Z,14.47
2018-02-22T02:54:46.042Z,17.53
2018-02-22T02:57:12.475Z,14.93
2018-02-22T02:59:38.903Z,16.03
2018-02-22T03:02:05.332Z,15.63
2018-02-22T03:04:31.862Z,15.37
2018-02-22T03:06:58.302Z,14.73
2018-02-22T03:09:24.746Z,15.23
2018-02-22T03:11:51.117Z,13.77
2018-02-22T03:14:17.488Z,15.67
2018-02-22T03:16:43.915Z,15.33
2018-02-22T03:19:10.261Z,16.43
2018-02-22T03:21:36.610Z,15.97
2018-02-22T03:24:03.077Z,15.10
2018-02-22T03:26:29.457Z,14.57
2018-02-22T03:28:55.829Z,15.13
2018-02-22T03:31:22.278Z,16.17
2018-02-22T03:33:48.677Z,12.80
2018-02-22T03:36:15.082Z,13.77
2018-02-22T03:38:41.522Z,13.97
2018-02-22T03:41:07.918Z,14.17
2018-02-22T03:43:34.310Z,14.90
2018-02-22T03:46:00.904Z,14.80
2018-02-22T03:48:27.262Z,14.07
2018-02-22T03:50:53.689Z,13.87
2018-02-22T03:53:20.183Z,13.27
2018-02-22T03:55:46.671Z,13.90
2018-02-22T03:58:13.165Z,14.50
2018-02-22T04:00:39.648Z,14.50
2018-02-22T04:03:06.207Z,15.40
2018-02-22T04:05:32.581Z,16.20
2018-02-22T04:07:59.029Z,15.53
2018-02-22T04:10:25.436Z,16.20
2018-02-22T04:12:51.854Z,16.20
2018-02-22T04:15:18.321Z,16.70
2018-02-22T04:17:44.701Z,17.83
2018-02-22T04:20:11.121Z,16.97
2018-02-22T04:22:37.650Z,16.93
2018-02-22T04:25:03.993Z,14.50
2018-02-22T04:27:30.381Z,14.33
2018-02-22T04:29:56.848Z,13.27
2018-02-22T04:32:23.236Z,14.17
2018-02-22T04:34:49.672Z,14.53
2018-02-22T04:37:16.088Z,13.67
2018-02-22T04:39:42.535Z,11.23
2018-02-22T04:42:08.956Z,11.40
2018-02-22T04:44:35.309Z,11.87
2018-02-22T04:47:01.773Z,14.33
2018-02-22T04:49:28.139Z,16.37
2018-02-22T04:51:54.643Z,15.50
2018-02-22T04:54:21.102Z,15.20
2018-02-22T04:56:47.533Z,16.53
2018-02-22T04:59:13.935Z,16.73
2018-02-22T05:01:40.348Z,17.17
2018-02-22T05:04:06.733Z,17.03
2018-02-22T05:06:33.223Z,15.97
2018-02-22T05:08:59.641Z,17.67
2018-02-22T05:11:26.925Z,19.00
2018-02-22T05:13:53.281Z,21.47
2018-02-22T05:16:19.754Z,20.00
2018-02-22T05:18:46.150Z,21.57
2018-02-22T05:21:12.526Z,18.47
2018-02-22T05:23:38.964Z,19.53
2018-02-22T05:26:05.350Z,20.33
2018-02-22T05:28:31.733Z,20.60
2018-02-22T05:30:58.198Z,20.97
2018-02-22T05:33:24.608Z,20.53
2018-02-22T05:35:50.979Z,20.27
2018-02-22T05:38:17.401Z,20.73
2018-02-22T05:40:43.922Z,18.40
2018-02-22T05:43:10.310Z,18.80
2018-02-22T05:45:37.182Z,18.60
2018-02-22T05:48:03.562Z,19.20
2018-02-22T05:50:34.786Z,24.67
2018-02-22T05:53:01.381Z,22.07
2018-02-22T05:55:27.802Z,21.83
2018-02-22T05:57:54.305Z,21.40
2018-02-22T06:00:20.798Z,19.13
2018-02-22T06:02:47.192Z,23.27
2018-02-22T06:05:13.601Z,23.00
2018-02-22T06:07:40.082Z,25.67
2018-02-22T06:10:06.447Z,24.30
2018-02-22T06:12:32.939Z,25.37
2018-02-22T06:14:59.368Z,24.40
2018-02-22T06:17:25.724Z,19.03
2018-02-22T06:19:52.122Z,17.10
2018-02-22T06:22:18.541Z,20.20
2018-02-22T06:24:45.001Z,20.63
2018-02-22T06:27:11.356Z,22.87
2018-02-22T06:29:40.725Z,22.50
2018-02-22T06:32:07.156Z,22.77
2018-02-22T06:34:33.517Z,22.53
2018-02-22T06:36:59.941Z,22.37
2018-02-22T06:39:27.296Z,21.80
2018-02-22T06:41:56.409Z,23.77
2018-02-22T06:44:23.855Z,24.80
2018-02-22T06:46:50.385Z,22.67
2018-02-22T06:49:16.793Z,24.17
2018-02-22T06:51:43.201Z,26.17
2018-02-22T06:54:09.561Z,28.30
2018-02-22T06:56:35.944Z,23.90
2018-02-22T06:59:02.510Z,27.27
2018-02-22T07:01:28.945Z,20.90
2018-02-22T07:03:55.409Z,17.37
2018-02-22T07:06:21.869Z,20.20
2018-02-22T07:08:48.241Z,24.63
2018-02-22T07:11:14.605Z,27.50
2018-02-22T07:13:41.066Z,24.90
2018-02-22T07:16:07.518Z,21.83
2018-02-22T07:18:33.921Z,23.00
2018-02-22T07:21:00.347Z,24.87
2018-02-22T07:23:26.863Z,26.67
2018-02-22T07:25:53.229Z,22.77
2018-02-22T07:28:19.665Z,22.27
2018-02-22T07:30:46.200Z,21.87
2018-02-22T07:33:15.988Z,18.27
2018-02-22T07:35:42.387Z,20.73
2018-02-22T07:38:08.778Z,17.23
2018-02-22T07:40:35.142Z,16.13
2018-02-22T07:43:01.603Z,19.30
2018-02-22T07:45:28.083Z,18.67
2018-02-22T07:47:54.433Z,24.07
2018-02-22T07:50:20.846Z,26.17
2018-02-22T07:52:47.324Z,24.90
2018-02-22T07:55:13.720Z,24.70
2018-02-22T07:57:40.129Z,35.97
2018-02-22T08:00:06.649Z,29.30
2018-02-22T08:02:33.075Z,42.20
2018-02-22T08:05:00.381Z,45.77
2018-02-22T08:07:26.863Z,38.33
2018-02-22T08:09:53.326Z,36.67
2018-02-22T08:12:19.793Z,29.00
2018-02-22T08:14:46.238Z,23.47
2018-02-22T08:17:12.655Z,22.20
2018-02-22T08:19:39.128Z,28.20
2018-02-22T08:22:05.573Z,23.80
2018-02-22T08:24:31.979Z,33.90
2018-02-22T08:26:58.470Z,31.43
2018-02-22T08:29:24.986Z,34.63
2018-02-22T08:31:51.394Z,37.13
2018-02-22T08:34:17.890Z,37.47
2018-02-22T08:36:44.970Z,29.13
2018-02-22T08:39:11.396Z,28.87
2018-02-22T08:41:37.777Z,36.73
2018-02-22T08:44:04.241Z,31.27
2018-02-22T08:46:30.647Z,30.97
2018-02-22T08:48:57.128Z,28.57
2018-02-22T08:51:28.958Z,17.20
2018-02-22T08:54:11.315Z,18.67
2018-02-22T08:56:49.886Z,20.67
2018-02-22T08:59:20.257Z,16.43
2018-02-22T09:01:57.211Z,12.87
2018-02-22T09:04:29.378Z,14.33
2018-02-22T09:06:56.023Z,12.67
2018-02-22T09:09:22.394Z,15.27
2018-02-22T09:11:48.741Z,14.27
2018-02-22T09:14:15.266Z,12.07
2018-02-22T09:16:41.826Z,13.83
2018-02-22T09:19:08.209Z,14.10
2018-02-22T09:21:34.638Z,10.03
2018-02-22T09:24:01.096Z,16.20
2018-02-22T09:26:27.540Z,15.40
2018-02-22T09:28:53.974Z,13.83
2018-02-22T09:31:20.453Z,16.53
2018-02-22T09:33:46.844Z,21.97
2018-02-22T09:36:13.259Z,22.70
2018-02-22T09:38:39.782Z,19.90
2018-02-22T09:41:06.162Z,21.83
2018-02-22T09:43:32.581Z,24.27
2018-02-22T09:45:59.035Z,25.97
2018-02-22T09:48:25.609Z,26.00
2018-02-22T09:50:59.092Z,26.83
2018-02-22T09:53:25.477Z,25.20
2018-02-22T09:55:51.890Z,27.63
2018-02-22T09:58:18.329Z,14.17
2018-02-22T10:00:44.743Z,9.77
2018-02-22T10:03:11.114Z,11.03
2018-02-22T10:05:37.599Z,14.20
2018-02-22T10:08:04.090Z,13.50
2018-02-22T10:10:30.541Z,12.10
2018-02-22T10:12:57.092Z,13.23
2018-02-22T10:15:23.594Z,19.23
2018-02-22T10:17:50.022Z,21.07
2018-02-22T10:20:16.637Z,10.83
2018-02-22T10:22:43.054Z,11.60
2018-02-22T10:25:09.514Z,12.20
2018-02-22T10:27:36.102Z,11.03
2018-02-22T10:30:02.621Z,12.43
2018-02-22T10:32:29.025Z,15.40
2018-02-22T10:34:55.448Z,20.57
2018-02-22T10:37:21.964Z,22.80
2018-02-22T10:39:48.537Z,25.77
2018-02-22T10:42:14.961Z,25.77
2018-02-22T10:44:41.652Z,21.50
2018-02-22T10:47:08.420Z,23.40
2018-02-22T10:49:34.774Z,18.07
2018-02-22T10:52:01.152Z,14.20
2018-02-22T10:54:27.582Z,14.40
2018-02-22T10:56:53.974Z,13.03
2018-02-22T10:59:20.410Z,12.30
2018-02-22T11:01:52.878Z,18.97
2018-02-22T11:04:19.322Z,17.87
2018-02-22T11:06:45.742Z,9.10
2018-02-22T11:09:12.135Z,9.60
2018-02-22T11:11:38.579Z,15.17
2018-02-22T11:14:05.057Z,15.03
2018-02-22T11:16:31.474Z,15.23
2018-02-22T11:18:58.049Z,14.37
2018-02-22T11:21:24.495Z,17.03
2018-02-22T11:23:50.843Z,15.83
2018-02-22T11:26:17.322Z,15.90
2018-02-22T11:28:43.790Z,20.80
2018-02-22T11:31:10.193Z,17.73
2018-02-22T11:33:36.594Z,21.17
2018-02-22T11:36:03.070Z,19.73
2018-02-22T11:38:29.514Z,19.87
2018-02-22T11:40:55.876Z,19.83
2018-02-22T11:43:22.302Z,21.63
2018-02-22T11:45:48.702Z,17.40
2018-02-22T11:48:15.078Z,19.03
2018-02-22T11:50:41.618Z,20.20
2018-02-22T11:53:08.228Z,17.77
2018-02-22T11:55:34.638Z,15.63
2018-02-22T11:58:01.097Z,16.20
2018-02-22T12:00:27.597Z,17.47
2018-02-22T12:02:54.239Z,17.10
2018-02-22T12:05:20.763Z,13.30
2018-02-22T12:07:47.186Z,11.33
2018-02-22T12:10:13.618Z,14.53
2018-02-22T12:12:40.205Z,10.80
2018-02-22T12:15:06.726Z,11.23
2018-02-22T12:17:33.181Z,11.20
2018-02-22T12:19:59.574Z,7.73
2018-02-22T12:22:26.308Z,8.30
2018-02-22T12:24:52.645Z,10.23
2018-02-22T12:27:19.018Z,18.80
2018-02-22T12:29:45.421Z,18.37
2018-02-22T12:32:11.906Z,16.97
2018-02-22T12:34:38.373Z,19.67
2018-02-22T12:37:04.877Z,22.87
2018-02-22T12:39:31.281Z,19.83
2018-02-22T12:41:57.731Z,20.90
2018-02-22T12:44:24.209Z,29.30
2018-02-22T12:46:50.577Z,16.87
2018-02-22T12:49:17.009Z,23.03
2018-02-22T12:51:43.449Z,24.90
2018-02-22T12:54:09.862Z,18.77
2018-02-22T12:56:36.364Z,16.90
2018-02-22T12:59:02.842Z,18.17
2018-02-22T13:01:29.285Z,13.03
2018-02-22T13:03:55.713Z,16.97
2018-02-22T13:06:22.214Z,16.63
2018-02-22T13:08:48.586Z,21.30
2018-02-22T13:11:14.992Z,21.50
2018-02-22T13:13:41.449Z,17.63
2018-02-22T13:16:09.076Z,16.40
2018-02-22T13:18:35.475Z,15.40
2018-02-22T13:21:01.947Z,16.80
2018-02-22T13:23:45.405Z,17.43
2018-02-22T13:26:19.113Z,17.40
2018-02-22T13:28:45.606Z,12.80
2018-02-22T13:31:12.042Z,13.80
2018-02-22T13:33:50.849Z,12.17
2018-02-22T13:36:17.185Z,13.13
2018-02-22T13:38:57.084Z,11.07
2018-02-22T13:41:23.478Z,11.17
2018-02-22T13:44:02.059Z,16.63
2018-02-22T13:46:28.497Z,14.97
2018-02-22T13:49:07.225Z,12.87
2018-02-22T13:51:33.578Z,15.23
2018-02-22T13:54:00.023Z,15.87
2018-02-22T13:56:38.621Z,15.43
2018-02-22T13:59:04.982Z,18.93
2018-02-22T14:01:43.733Z,19.03
2018-02-22T14:04:10.106Z,20.17
2018-02-22T14:06:36.646Z,24.80
2018-02-22T14:09:03.308Z,12.90
2018-02-22T14:11:31.855Z,17.43
2018-02-22T14:13:58.921Z,20.10
2018-02-22T14:16:25.437Z,23.77
2018-02-22T14:18:51.833Z,23.33
2018-02-22T14:21:18.233Z,24.17
2018-02-22T14:23:44.737Z,25.73
2018-02-22T14:26:11.134Z,26.40
2018-02-22T14:28:37.688Z,28.67
2018-02-22T14:31:04.158Z,28.07
2018-02-22T14:33:30.491Z,30.53
2018-02-22T14:35:56.925Z,27.97
2018-02-22T14:38:23.422Z,25.77
2018-02-22T14:40:49.850Z,20.03
2018-02-22T14:43:16.282Z,23.83
2018-02-22T14:45:42.710Z,23.97
2018-02-22T14:48:09.208Z,21.50
2018-02-22T14:50:35.789Z,16.90
2018-02-22T14:53:02.202Z,22.80
2018-02-22T14:55:28.638Z,15.27
2018-02-22T14:57:55.102Z,14.83
2018-02-22T15:00:21.554Z,19.43
2018-02-22T15:02:48.077Z,17.67
2018-02-22T15:05:14.494Z,14.90
2018-02-22T15:07:41.049Z,13.67
2018-02-22T15:10:07.480Z,11.20
2018-02-22T15:12:33.982Z,10.73
2018-02-22T15:15:00.453Z,13.47
2018-02-22T15:17:26.877Z,13.33
2018-02-22T15:19:53.332Z,12.60
2018-02-22T15:22:20.378Z,16.83
2018-02-22T15:24:46.834Z,17.10
2018-02-22T15:27:13.350Z,15.13
2018-02-22T15:29:39.891Z,15.20
2018-02-22T15:32:06.310Z,21.30
2018-02-22T15:34:32.872Z,22.37
2018-02-22T15:36:59.294Z,19.00
2018-02-22T15:39:25.715Z,21.37
2018-02-22T15:41:52.309Z,19.77
2018-02-22T15:44:18.734Z,19.53
2018-02-22T15:46:45.272Z,20.20
2018-02-22T15:49:11.825Z,19.20
2018-02-22T15:51:38.341Z,19.83
2018-02-22T15:54:04.856Z,18.70
2018-02-22T15:56:31.335Z,19.00
2018-02-22T15:58:57.717Z,20.13
2018-02-22T16:01:24.121Z,20.03
2018-02-22T16:03:50.588Z,21.70
2018-02-22T16:06:17.007Z,20.67
2018-02-22T16:08:43.437Z,19.53
2018-02-22T16:11:09.933Z,30.80
2018-02-22T16:13:36.346Z,24.17
2018-02-22T16:16:02.761Z,17.77
2018-02-22T16:18:29.170Z,15.97
2018-02-22T16:20:55.692Z,18.40
2018-02-22T16:23:22.130Z,15.53
2018-02-22T16:25:48.778Z,18.33
2018-02-22T16:28:15.274Z,19.47
2018-02-22T16:30:41.742Z,22.20
2018-02-22T16:33:08.227Z,23.30
2018-02-22T16:35:34.686Z,27.30
2018-02-22T16:38:01.098Z,27.97
2018-02-22T16:40:27.655Z,20.80
2018-02-22T16:42:54.009Z,18.60
2018-02-22T16:45:20.409Z,17.17
2018-02-22T16:47:46.945Z,19.87
2018-02-22T16:50:13.469Z,19.27
2018-02-22T16:52:41.521Z,23.37
2018-02-22T16:55:08.076Z,25.03
2018-02-22T16:57:34.497Z,30.03
2018-02-22T17:00:00.935Z,32.83
2018-02-22T17:02:27.426Z,29.00
2018-02-22T17:04:54.044Z,22.50
2018-02-22T17:07:20.525Z,23.47
2018-02-22T17:09:46.945Z,26.37
2018-02-22T17:12:13.537Z,25.07
2018-02-22T17:14:39.917Z,24.33
2018-02-22T17:17:06.378Z,25.43
2018-02-22T17:19:32.805Z,25.67
2018-02-22T17:21:59.286Z,21.97
2018-02-22T17:24:25.755Z,19.97
2018-02-22T17:26:58.183Z,19.47
2018-02-22T17:29:30.864Z,22.10
2018-02-22T17:32:03.253Z,21.63
2018-02-22T17:34:29.741Z,17.80
2018-02-22T17:36:56.228Z,14.53
2018-02-22T17:39:26.450Z,20.10
2018-02-22T17:41:53.122Z,24.00
2018-02-22T17:44:19.573Z,18.83
2018-02-22T17:46:46.022Z,16.90
2018-02-22T17:49:12.481Z,18.73
2018-02-22T17:51:38.918Z,14.20
2018-02-22T17:54:05.382Z,9.83
2018-02-22T17:56:31.881Z,12.13
2018-02-22T17:58:58.376Z,11.73
2018-02-22T18:01:24.802Z,14.17
2018-02-22T18:03:51.269Z,14.17
2018-02-22T18:06:17.802Z,17.23
2018-02-22T18:08:44.205Z,17.70
2018-02-22T18:11:10.681Z,18.67
2018-02-22T18:13:37.185Z,18.37
2018-02-22T18:16:03.612Z,15.17
2018-02-22T18:18:30.094Z,13.37
2018-02-22T18:20:56.529Z,15.53
2018-02-22T18:23:22.925Z,19.93
2018-02-22T18:25:49.441Z,21.73
2018-02-22T18:28:15.958Z,22.40
2018-02-22T18:30:42.378Z,21.37
2018-02-22T18:33:08.845Z,20.37
2018-02-22T18:35:35.258Z,21.67
2018-02-22T18:38:01.870Z,23.07
2018-02-22T18:40:34.327Z,19.23
2018-02-22T18:43:00.830Z,18.60
2018-02-22T18:45:27.293Z,16.27
2018-02-22T18:47:53.658Z,18.33
2018-02-22T18:50:20.102Z,18.90
2018-02-22T18:52:46.533Z,18.80
2018-02-22T18:55:12.893Z,19.53
2018-02-22T18:57:39.302Z,21.60
2018-02-22T19:00:05.846Z,26.73
2018-02-22T19:02:32.253Z,25.53
2018-02-22T19:04:58.732Z,20.10
2018-02-22T19:07:25.180Z,17.07
2018-02-22T19:09:51.523Z,16.33
2018-02-22T19:12:18.047Z,15.37
2018-02-22T19:14:44.509Z,13.20
2018-02-22T19:17:10.918Z,13.47
2018-02-22T19:19:37.277Z,16.20
2018-02-22T19:22:03.760Z,14.03
2018-02-22T19:24:30.126Z,13.97
2018-02-22T19:26:56.625Z,14.00
2018-02-22T19:29:23.062Z,13.23
2018-02-22T19:31:49.443Z,12.73
2018-02-22T19:34:15.982Z,17.17
2018-02-22T19:36:42.357Z,16.20
2018-02-22T19:39:08.801Z,19.33
2018-02-22T19:41:35.210Z,13.80
2018-02-22T19:44:01.638Z,15.50
2018-02-22T19:46:28.012Z,13.50
2018-02-22T19:48:54.454Z,14.60
2018-02-22T19:51:20.869Z,14.23
2018-02-22T19:53:47.431Z,16.00
2018-02-22T19:56:13.873Z,15.63
2018-02-22T19:58:40.322Z,19.90
2018-02-22T20:01:06.787Z,19.00
2018-02-22T20:03:33.194Z,20.37
2018-02-22T20:05:59.580Z,21.03
2018-02-22T20:08:25.998Z,19.70
2018-02-22T20:10:52.525Z,17.00
2018-02-22T20:13:19.062Z,16.77
2018-02-22T20:15:45.577Z,16.23
2018-02-22T20:18:11.926Z,18.47
2018-02-22T20:20:38.471Z,20.20
2018-02-22T20:23:04.902Z,20.53
2018-02-22T20:25:31.314Z,19.07
2018-02-22T20:27:57.718Z,15.97
2018-02-22T20:30:24.186Z,15.47
2018-02-22T20:32:50.606Z,18.67
2018-02-22T20:35:17.022Z,19.30
2018-02-22T20:37:43.530Z,15.43
2018-02-22T20:40:09.877Z,15.40
2018-02-22T20:42:36.338Z,16.43
2018-02-22T20:45:02.853Z,17.63
2018-02-22T20:47:29.329Z,17.37
2018-02-22T20:49:55.824Z,17.23
2018-02-22T20:52:28.077Z,17.70
2018-02-22T20:54:56.413Z,16.47
2018-02-22T20:57:23.130Z,15.60
2018-02-22T20:59:49.634Z,14.23
2018-02-22T21:02:16.122Z,15.30
2018-02-22T21:04:42.558Z,15.77
2018-02-22T21:07:08.964Z,13.30
2018-02-22T21:09:35.365Z,16.63
2018-02-22T21:12:01.741Z,15.23
2018-02-22T21:14:28.186Z,17.17
2018-02-22T21:16:54.626Z,19.10
2018-02-22T21:19:21.018Z,19.67
2018-02-22T21:21:47.425Z,19.87
2018-02-22T21:24:13.838Z,21.53
2018-02-22T21:26:40.231Z,22.53
2018-02-22T21:29:06.668Z,22.97
2018-02-22T21:31:33.069Z,21.37
2018-02-22T21:33:59.510Z,20.63
2018-02-22T21:36:26.869Z,18.20
2018-02-22T21:38:53.256Z,18.20
2018-02-22T21:41:19.773Z,18.07
2018-02-22T21:43:46.173Z,17.73
2018-02-22T21:46:12.617Z,17.40
2018-02-22T21:48:39.015Z,18.47
2018-02-22T21:51:05.405Z,19.20
2018-02-22T21:53:31.801Z,18.13
2018-02-22T21:55:58.254Z,19.87
2018-02-22T21:58:24.654Z,19.93
2018-02-22T22:00:51.090Z,19.17
2018-02-22T22:03:17.502Z,18.90
2018-02-22T22:05:43.933Z,20.53
2018-02-22T22:08:10.393Z,20.67
2018-02-22T22:10:36.813Z,21.53
2018-02-22T22:13:03.221Z,19.97
2018-02-22T22:15:29.630Z,20.97
2018-02-22T22:17:55.998Z,21.37
2018-02-22T22:20:22.350Z,21.07
2018-02-22T22:22:48.744Z,21.23
2018-02-22T22:25:15.215Z,19.93
2018-02-22T22:27:41.595Z,21.13
2018-02-22T22:30:07.984Z,21.87
2018-02-22T22:32:34.503Z,21.13
2018-02-22T22:35:00.925Z,19.80
2018-02-22T22:37:27.303Z,18.40
2018-02-22T22:39:53.762Z,18.87
2018-02-22T22:42:20.159Z,18.90
2018-02-22T22:44:46.543Z,19.17
2018-02-22T22:47:12.898Z,16.43
2018-02-22T22:49:39.353Z,19.90
2018-02-22T22:52:05.790Z,20.97
2018-02-22T22:54:32.238Z,21.13
2018-02-22T22:56:58.713Z,31.33
2018-02-22T22:59:25.072Z,28.37
2018-02-22T23:01:51.434Z,26.20
2018-02-22T23:04:17.865Z,24.67
2018-02-22T23:06:44.287Z,23.77
2018-02-22T23:09:10.833Z,26.37
2018-02-22T23:11:37.356Z,27.47
2018-02-22T23:14:03.933Z,25.93
2018-02-22T23:16:30.310Z,28.10
2018-02-22T23:18:56.671Z,26.83
2018-02-22T23:21:23.150Z,26.77
2018-02-22T23:23:49.559Z,30.23
2018-02-22T23:26:16.002Z,29.57
2018-02-22T23:28:42.476Z,32.80
2018-02-22T23:31:08.895Z,35.57
2018-02-22T23:33:35.325Z,34.00
2018-02-22T23:36:01.734Z,34.17
2018-02-22T23:38:28.201Z,36.63
2018-02-22T23:54:13.301Z,23.70
2018-02-22T23:56:39.798Z,24.37
2018-02-22T23:59:06.297Z,26.53
